createdAt,value
2023-05-23T00:02:24.045Z,12.30
2023-05-23T00:04:52.385Z,12.25
2023-05-23T00:07:19.033Z,11.80
2023-05-23T00:09:45.686Z,12.02
2023-05-23T00:12:12.402Z,12.23
2023-05-23T00:14:40.165Z,11.65
2023-05-23T00:17:08.089Z,12.80
2023-05-23T00:19:36.440Z,12.02
2023-05-23T00:22:03.380Z,12.45
2023-05-23T00:24:30.059Z,13.45
2023-05-23T00:26:58.889Z,12.63
2023-05-23T00:29:25.800Z,13.02
2023-05-23T00:31:52.471Z,13.68
2023-05-23T00:34:19.466Z,12.50
2023-05-23T00:36:50.393Z,13.20
2023-05-23T00:39:21.278Z,13.30
2023-05-23T00:41:51.475Z,13.90
2023-05-23T00:44:20.174Z,19.35
2023-05-23T00:46:49.719Z,21.05
2023-05-23T00:49:20.012Z,24.13
2023-05-23T00:51:46.664Z,24.05
2023-05-23T00:54:13.491Z,25.90
2023-05-23T00:56:40.203Z,25.92
2023-05-23T00:59:07.224Z,24.67
2023-05-23T01:01:33.940Z,23.95
2023-05-23T01:04:02.927Z,23.15
2023-05-23T01:06:30.585Z,22.58
2023-05-23T01:08:57.291Z,22.98
2023-05-23T01:11:28.222Z,22.67
2023-05-23T01:14:00.979Z,21.65
2023-05-23T01:16:39.294Z,21.55
2023-05-23T01:19:17.723Z,21.42
2023-05-23T01:21:46.339Z,19.45
2023-05-23T01:24:21.622Z,19.98
2023-05-23T01:27:19.024Z,19.40
2023-05-23T01:29:46.989Z,17.92
2023-05-23T01:32:14.422Z,18.58
2023-05-23T01:34:41.285Z,18.40
2023-05-23T01:37:11.308Z,18.10
2023-05-23T01:39:38.227Z,19.08
2023-05-23T01:42:05.004Z,19.55
2023-05-23T01:44:32.235Z,20.48
2023-05-23T01:46:58.899Z,18.83
2023-05-23T01:49:25.560Z,19.75
2023-05-23T01:51:52.575Z,19.30
2023-05-23T01:54:19.857Z,20.13
2023-05-23T01:56:47.005Z,19.35
2023-05-23T01:59:13.653Z,19.27
2023-05-23T02:01:40.847Z,20.38
2023-05-23T02:04:07.578Z,20.80
2023-05-23T02:06:34.298Z,20.40
2023-05-23T02:09:00.972Z,19.25
2023-05-23T02:11:27.594Z,20.08
2023-05-23T02:13:54.271Z,20.48
2023-05-23T02:16:21.644Z,20.63
2023-05-23T02:18:49.214Z,20.15
2023-05-23T02:21:15.949Z,20.02
2023-05-23T02:23:42.648Z,19.67
2023-05-23T02:26:09.290Z,19.90
2023-05-23T02:28:35.933Z,19.92
2023-05-23T02:31:02.766Z,20.92
2023-05-23T02:33:29.473Z,19.23
2023-05-23T02:35:56.128Z,19.65
2023-05-23T02:38:22.775Z,18.98
2023-05-23T02:40:51.726Z,19.88
2023-05-23T02:43:18.518Z,19.40
2023-05-23T02:45:45.168Z,19.85
2023-05-23T02:48:14.754Z,19.63
2023-05-23T02:50:41.556Z,18.30
2023-05-23T02:53:08.226Z,18.50
2023-05-23T02:55:34.878Z,18.65
2023-05-23T02:58:01.530Z,16.98
2023-05-23T03:00:28.214Z,17.00
2023-05-23T03:02:54.971Z,16.98
2023-05-23T03:05:21.810Z,16.33
2023-05-23T03:07:48.530Z,16.75
2023-05-23T03:10:15.434Z,16.42
2023-05-23T03:12:42.533Z,15.57
2023-05-23T03:15:10.039Z,15.30
2023-05-23T03:17:37.204Z,13.68
2023-05-23T03:20:04.988Z,14.07
2023-05-23T03:22:31.797Z,13.48
2023-05-23T03:24:58.652Z,11.82
2023-05-23T03:27:25.429Z,12.85
2023-05-23T03:29:52.249Z,12.88
2023-05-23T03:32:19.141Z,12.27
2023-05-23T03:34:46.281Z,11.77
2023-05-23T03:37:13.086Z,12.20
2023-05-23T03:39:40.032Z,11.68
2023-05-23T03:42:07.105Z,10.80
2023-05-23T03:44:33.925Z,11.27
2023-05-23T03:47:00.823Z,11.07
2023-05-23T03:49:27.634Z,10.02
2023-05-23T03:51:54.481Z,11.27
2023-05-23T03:54:21.296Z,10.48
2023-05-23T03:56:48.138Z,10.13
2023-05-23T03:59:15.231Z,11.23
2023-05-23T04:01:42.040Z,10.15
2023-05-23T04:04:08.948Z,11.55
2023-05-23T04:06:35.798Z,11.57
2023-05-23T04:09:03.474Z,11.68
2023-05-23T04:11:30.342Z,9.82
2023-05-23T04:13:57.316Z,9.13
2023-05-23T04:16:24.576Z,7.85
2023-05-23T04:18:52.022Z,7.50
2023-05-23T04:21:18.937Z,7.65
2023-05-23T04:23:46.156Z,7.82
2023-05-23T04:26:13.076Z,7.70
2023-05-23T04:28:40.057Z,7.10
2023-05-23T04:31:06.810Z,6.13
2023-05-23T04:33:34.235Z,5.35
2023-05-23T04:36:02.521Z,6.22
2023-05-23T04:38:29.230Z,5.20
2023-05-23T04:40:58.111Z,5.75
2023-05-23T04:43:26.555Z,5.70
2023-05-23T04:45:57.736Z,5.25
2023-05-23T04:48:24.832Z,5.32
2023-05-23T04:50:52.614Z,5.53
2023-05-23T04:53:19.303Z,6.55
2023-05-23T04:55:46.300Z,6.43
2023-05-23T04:58:13.120Z,5.90
2023-05-23T05:00:40.039Z,6.07
2023-05-23T05:03:07.014Z,6.13
2023-05-23T05:05:33.699Z,4.78
2023-05-23T05:08:00.388Z,5.53
2023-05-23T05:10:27.057Z,4.97
2023-05-23T05:12:53.740Z,4.55
2023-05-23T05:15:20.435Z,5.45
2023-05-23T05:17:49.607Z,5.57
2023-05-23T05:20:17.381Z,5.15
2023-05-23T05:22:44.564Z,5.85
2023-05-23T05:25:11.274Z,4.97
2023-05-23T05:27:39.049Z,5.15
2023-05-23T05:30:09.250Z,5.50
2023-05-23T05:32:36.018Z,5.03
2023-05-23T05:35:03.283Z,4.72
2023-05-23T05:37:30.072Z,5.15
2023-05-23T05:39:56.885Z,5.78
2023-05-23T05:42:23.531Z,5.05
2023-05-23T05:44:50.286Z,6.28
2023-05-23T05:47:16.931Z,5.47
2023-05-23T05:49:43.588Z,5.75
2023-05-23T05:52:10.288Z,6.10
2023-05-23T05:54:37.564Z,6.00
2023-05-23T05:57:04.446Z,6.45
2023-05-23T05:59:32.521Z,6.20
2023-05-23T06:01:59.425Z,6.10
2023-05-23T06:04:26.188Z,4.57
2023-05-23T06:06:52.901Z,5.68
2023-05-23T06:09:19.864Z,6.30
2023-05-23T06:11:46.876Z,7.22
2023-05-23T06:14:13.572Z,6.13
2023-05-23T06:16:40.878Z,5.35
2023-05-23T06:19:08.433Z,6.03
2023-05-23T06:21:36.232Z,4.88
2023-05-23T06:24:02.966Z,5.95
2023-05-23T06:26:29.674Z,5.50
2023-05-23T06:28:56.377Z,5.22
2023-05-23T06:31:23.085Z,5.43
2023-05-23T06:33:49.870Z,5.35
2023-05-23T06:36:16.614Z,5.40
2023-05-23T06:38:43.261Z,5.30
2023-05-23T06:41:09.948Z,4.82
2023-05-23T06:43:36.933Z,6.10
2023-05-23T06:46:03.977Z,5.32
2023-05-23T06:48:30.775Z,5.60
2023-05-23T06:50:57.482Z,5.28
2023-05-23T06:53:24.149Z,5.60
2023-05-23T06:55:50.839Z,5.93
2023-05-23T06:58:17.523Z,5.63
2023-05-23T07:00:44.341Z,6.15
2023-05-23T07:03:11.350Z,7.13
2023-05-23T07:05:40.898Z,8.60
2023-05-23T07:08:08.248Z,5.50
2023-05-23T07:10:35.310Z,5.82
2023-05-23T07:13:02.154Z,6.70
2023-05-23T07:15:28.808Z,6.85
2023-05-23T07:17:55.871Z,5.60
2023-05-23T07:20:22.636Z,7.30
2023-05-23T07:22:51.654Z,5.85
2023-05-23T07:25:18.371Z,6.15
2023-05-23T07:27:45.213Z,5.97
2023-05-23T07:30:12.130Z,6.32
2023-05-23T07:32:38.832Z,6.97
2023-05-23T07:35:06.554Z,6.93
2023-05-23T07:37:33.236Z,7.63
2023-05-23T07:40:00.869Z,6.57
2023-05-23T07:42:27.514Z,7.03
2023-05-23T07:44:54.176Z,7.63
2023-05-23T07:47:20.839Z,7.60
2023-05-23T07:49:47.574Z,6.78
2023-05-23T07:52:14.206Z,6.68
2023-05-23T07:54:40.870Z,7.40
2023-05-23T07:57:07.501Z,7.25
2023-05-23T07:59:34.186Z,7.25
2023-05-23T08:02:00.850Z,6.70
2023-05-23T08:04:28.015Z,6.18
2023-05-23T08:09:25.305Z,5.97
2023-05-23T08:11:51.980Z,6.63
2023-05-23T08:14:18.662Z,6.68
2023-05-23T08:16:46.428Z,6.53
2023-05-23T08:19:13.236Z,6.18
2023-05-23T08:21:40.103Z,6.47
2023-05-23T08:24:06.843Z,5.80
2023-05-23T08:26:37.492Z,5.55
2023-05-23T08:29:04.136Z,5.18
2023-05-23T08:31:31.292Z,6.70
2023-05-23T08:33:58.779Z,6.50
2023-05-23T08:36:25.588Z,6.10
2023-05-23T08:38:52.498Z,5.43
2023-05-23T08:41:20.082Z,6.82
2023-05-23T08:43:46.889Z,5.68
2023-05-23T08:46:13.963Z,6.18
2023-05-23T08:48:40.639Z,5.88
2023-05-23T08:51:08.083Z,6.40
2023-05-23T08:53:34.858Z,6.13
2023-05-23T08:56:04.193Z,6.07
2023-05-23T08:58:31.886Z,6.40
2023-05-23T09:00:59.813Z,6.55
2023-05-23T09:03:27.226Z,6.63
2023-05-23T09:05:57.703Z,5.90
2023-05-23T09:08:24.847Z,5.97
2023-05-23T09:10:51.637Z,6.43
2023-05-23T09:13:20.378Z,6.60
2023-05-23T09:16:02.688Z,6.15
2023-05-23T09:18:42.398Z,5.03
2023-05-23T09:21:09.720Z,5.32
2023-05-23T09:23:37.129Z,5.70
2023-05-23T09:26:04.762Z,5.13
2023-05-23T09:28:32.707Z,5.10
2023-05-23T09:31:09.303Z,4.55
2023-05-23T09:33:50.020Z,5.13
2023-05-23T09:36:17.290Z,5.63
2023-05-23T09:38:46.398Z,5.18
2023-05-23T09:41:13.334Z,4.90
2023-05-23T09:43:41.022Z,4.50
2023-05-23T09:46:09.462Z,4.35
2023-05-23T09:48:36.181Z,4.20
2023-05-23T09:51:09.912Z,4.10
2023-05-23T09:53:37.294Z,3.85
2023-05-23T09:56:04.274Z,3.13
2023-05-23T09:58:31.647Z,3.08
2023-05-23T10:01:00.970Z,2.65
2023-05-23T10:03:31.727Z,2.47
2023-05-23T10:06:03.960Z,2.90
2023-05-23T10:08:58.977Z,2.40
2023-05-23T10:11:34.883Z,2.33
2023-05-23T10:14:05.916Z,2.53
2023-05-23T10:17:03.364Z,2.33
2023-05-23T10:19:43.583Z,2.03
2023-05-23T10:22:10.809Z,2.20
2023-05-23T10:24:37.499Z,2.10
2023-05-23T10:27:04.474Z,1.90
2023-05-23T10:29:31.444Z,1.95
2023-05-23T10:31:58.113Z,1.88
2023-05-23T10:34:40.445Z,1.13
2023-05-23T10:37:07.790Z,1.13
2023-05-23T10:39:55.118Z,1.20
2023-05-23T10:42:45.869Z,1.50
2023-05-23T10:45:18.678Z,1.20
2023-05-23T10:47:47.170Z,1.35
2023-05-23T10:50:17.271Z,1.20
2023-05-23T10:52:45.015Z,1.10
2023-05-23T10:55:15.356Z,0.90
2023-05-23T10:57:43.951Z,1.20
2023-05-23T11:00:19.785Z,0.98
2023-05-23T11:02:59.833Z,1.17
2023-05-23T11:05:28.317Z,0.80
2023-05-23T11:08:11.196Z,0.90
2023-05-23T11:11:00.499Z,0.80
2023-05-23T11:13:47.611Z,1.08
2023-05-23T11:16:40.444Z,1.20
2023-05-23T11:19:19.637Z,1.20
2023-05-23T11:21:49.255Z,1.83
2023-05-23T11:24:16.542Z,2.70
2023-05-23T11:27:00.455Z,2.90
2023-05-23T11:29:28.785Z,3.45
2023-05-23T11:31:58.771Z,4.70
2023-05-23T11:34:26.116Z,4.70
2023-05-23T11:36:54.511Z,3.95
2023-05-23T11:39:21.878Z,4.35
2023-05-23T11:42:01.695Z,5.25
2023-05-23T11:44:28.511Z,4.80
2023-05-23T11:47:06.229Z,4.80
2023-05-23T11:49:35.248Z,4.43
2023-05-23T11:52:05.235Z,5.03
2023-05-23T11:54:31.910Z,5.38
2023-05-23T11:56:58.587Z,4.88
2023-05-23T11:59:26.326Z,4.50
2023-05-23T12:01:53.316Z,4.38
2023-05-23T12:04:20.162Z,4.70
2023-05-23T12:06:48.341Z,5.05
2023-05-23T12:09:14.973Z,4.90
2023-05-23T12:11:42.126Z,5.53
2023-05-23T12:14:09.867Z,5.30
2023-05-23T12:16:36.954Z,5.72
2023-05-23T12:19:05.687Z,5.55
2023-05-23T12:21:45.912Z,8.23
2023-05-23T12:24:17.555Z,6.85
2023-05-23T12:26:51.855Z,6.22
2023-05-23T12:29:19.647Z,6.80
2023-05-23T12:31:49.615Z,6.55
2023-05-23T12:34:16.323Z,6.65
2023-05-23T12:36:48.970Z,6.93
2023-05-23T12:39:16.292Z,6.82
2023-05-23T12:41:44.195Z,7.28
2023-05-23T12:44:11.446Z,7.13
2023-05-23T12:46:38.108Z,7.95
2023-05-23T12:49:04.911Z,7.30
2023-05-23T12:51:31.931Z,7.72
2023-05-23T12:53:58.932Z,8.52
2023-05-23T12:56:26.615Z,8.27
2023-05-23T12:58:54.279Z,9.07
2023-05-23T13:01:21.121Z,8.25
2023-05-23T13:03:47.920Z,8.50
2023-05-23T13:06:14.663Z,8.70
2023-05-23T13:08:41.696Z,8.00
2023-05-23T13:11:08.908Z,8.95
2023-05-23T13:13:35.598Z,8.85
2023-05-23T13:16:02.283Z,8.90
2023-05-23T13:18:28.932Z,9.05
2023-05-23T13:20:55.592Z,9.35
2023-05-23T13:23:22.450Z,8.82
2023-05-23T13:25:51.346Z,9.45
2023-05-23T13:28:18.140Z,9.40
2023-05-23T13:30:46.985Z,9.02
2023-05-23T13:33:14.341Z,9.18
2023-05-23T13:35:41.196Z,9.32
2023-05-23T13:38:08.280Z,9.70
2023-05-23T13:40:37.928Z,10.15
2023-05-23T13:43:05.044Z,9.00
2023-05-23T13:45:33.793Z,8.02
2023-05-23T13:48:00.689Z,7.82
2023-05-23T13:50:27.436Z,7.75
2023-05-23T13:52:54.157Z,7.80
2023-05-23T13:55:23.737Z,7.47
2023-05-23T13:57:50.413Z,7.40
2023-05-23T14:00:17.410Z,6.80
2023-05-23T14:02:44.173Z,6.88
2023-05-23T14:05:11.017Z,7.85
2023-05-23T14:07:38.324Z,7.25
2023-05-23T14:10:05.887Z,6.38
2023-05-23T14:12:32.563Z,6.55
2023-05-23T14:14:59.210Z,6.10
2023-05-23T14:17:26.040Z,5.72
2023-05-23T14:19:52.737Z,5.68
2023-05-23T14:22:19.444Z,5.45
2023-05-23T14:24:46.146Z,6.00
2023-05-23T14:27:12.826Z,5.55
2023-05-23T14:29:39.526Z,5.78
2023-05-23T14:32:06.624Z,6.18
2023-05-23T14:34:33.640Z,4.72
2023-05-23T14:37:01.079Z,5.05
2023-05-23T14:39:29.046Z,4.90
2023-05-23T14:41:55.891Z,5.03
2023-05-23T14:44:22.669Z,4.72
2023-05-23T14:46:50.134Z,4.47
2023-05-23T14:49:17.800Z,4.70
2023-05-23T14:51:50.369Z,4.93
2023-05-23T14:54:18.663Z,4.40
2023-05-23T14:56:45.515Z,5.20
2023-05-23T14:59:12.434Z,4.80
2023-05-23T15:01:40.652Z,5.85
2023-05-23T15:04:09.322Z,4.72
2023-05-23T15:06:38.175Z,4.70
2023-05-23T15:09:05.320Z,4.82
2023-05-23T15:11:39.178Z,4.35
2023-05-23T15:14:06.281Z,3.67
2023-05-23T15:16:35.334Z,3.85
2023-05-23T15:19:02.304Z,4.30
2023-05-23T15:21:29.114Z,4.40
2023-05-23T15:23:56.424Z,3.92
2023-05-23T15:26:23.838Z,4.35
2023-05-23T15:28:50.574Z,4.30
2023-05-23T15:31:17.248Z,3.85
2023-05-23T15:33:43.993Z,3.83
2023-05-23T15:36:13.025Z,4.22
2023-05-23T15:38:39.716Z,4.10
2023-05-23T15:41:06.578Z,4.43
2023-05-23T15:43:35.366Z,3.85
2023-05-23T15:46:02.234Z,3.80
2023-05-23T15:48:28.950Z,4.35
2023-05-23T15:50:55.615Z,5.43
2023-05-23T15:53:22.339Z,3.58
2023-05-23T15:55:49.023Z,4.40
2023-05-23T15:58:15.695Z,4.35
2023-05-23T16:00:42.516Z,4.03
2023-05-23T16:03:09.454Z,3.90
2023-05-23T16:05:36.293Z,3.80
2023-05-23T16:08:02.949Z,3.88
2023-05-23T16:10:29.600Z,4.35
2023-05-23T16:12:56.253Z,4.75
2023-05-23T16:15:22.897Z,4.28
2023-05-23T16:17:49.586Z,3.47
2023-05-23T16:20:16.406Z,4.13
2023-05-23T16:22:43.144Z,4.03
2023-05-23T16:25:10.706Z,4.75
2023-05-23T16:27:37.593Z,4.53
2023-05-23T16:30:04.677Z,4.55
2023-05-23T16:32:31.381Z,4.68
2023-05-23T16:34:58.071Z,3.95
2023-05-23T16:37:24.755Z,4.43
2023-05-23T16:39:51.638Z,4.18
2023-05-23T16:42:18.320Z,5.35
2023-05-23T16:44:45.491Z,5.03
2023-05-23T16:47:12.232Z,4.40
2023-05-23T16:49:38.920Z,5.47
2023-05-23T16:52:05.806Z,4.40
2023-05-23T16:54:32.471Z,4.45
2023-05-23T16:57:01.791Z,5.68
2023-05-23T16:59:29.891Z,3.88
2023-05-23T17:01:56.874Z,4.10
2023-05-23T17:04:23.775Z,4.65
2023-05-23T17:06:50.558Z,3.65
2023-05-23T17:09:18.126Z,4.38
2023-05-23T17:11:45.015Z,3.80
2023-05-23T17:14:11.870Z,3.75
2023-05-23T17:16:38.724Z,4.03
2023-05-23T17:19:05.654Z,4.32
2023-05-23T17:21:33.184Z,4.28
2023-05-23T17:23:59.892Z,3.60
2023-05-23T17:26:27.086Z,3.95
2023-05-23T17:28:53.773Z,4.15
2023-05-23T17:31:20.663Z,3.92
2023-05-23T17:33:47.403Z,3.83
2023-05-23T17:36:14.173Z,3.92
2023-05-23T17:38:41.572Z,4.40
2023-05-23T17:41:08.300Z,4.50
2023-05-23T17:43:34.974Z,4.30
2023-05-23T17:46:01.628Z,4.22
2023-05-23T17:48:45.899Z,4.35
2023-05-23T17:51:14.216Z,3.97
2023-05-23T17:53:41.650Z,4.70
2023-05-23T17:56:09.265Z,4.00
2023-05-23T17:58:37.699Z,4.50
2023-05-23T18:01:05.059Z,3.65
2023-05-23T18:03:32.163Z,4.07
2023-05-23T18:05:58.892Z,3.63
2023-05-23T18:08:25.772Z,4.22
2023-05-23T18:10:52.535Z,4.68
2023-05-23T18:13:19.197Z,5.05
2023-05-23T18:15:45.983Z,4.22
2023-05-23T18:18:12.857Z,3.80
2023-05-23T18:20:39.866Z,3.80
2023-05-23T18:23:07.427Z,4.00
2023-05-23T18:25:34.286Z,3.38
2023-05-23T18:28:01.811Z,3.80
2023-05-23T18:30:28.569Z,3.83
2023-05-23T18:32:56.065Z,4.45
2023-05-23T18:35:22.876Z,3.90
2023-05-23T18:37:49.555Z,3.60
2023-05-23T18:40:16.729Z,3.55
2023-05-23T18:42:43.636Z,3.50
2023-05-23T18:45:10.720Z,3.85
2023-05-23T18:47:37.741Z,4.38
2023-05-23T18:50:04.927Z,3.60
2023-05-23T18:52:33.796Z,3.58
2023-05-23T18:55:00.495Z,3.30
2023-05-23T18:57:27.292Z,3.55
2023-05-23T18:59:53.944Z,4.13
2023-05-23T19:02:20.871Z,4.10
2023-05-23T19:04:47.667Z,4.40
2023-05-23T19:07:14.383Z,3.90
2023-05-23T19:09:41.067Z,3.60
2023-05-23T19:12:07.795Z,3.60
2023-05-23T19:14:34.711Z,3.78
2023-05-23T19:17:02.171Z,2.97
2023-05-23T19:19:31.503Z,3.65
2023-05-23T19:21:58.601Z,3.78
2023-05-23T19:24:25.258Z,4.13
2023-05-23T19:26:52.052Z,4.20
2023-05-23T19:29:18.719Z,4.72
2023-05-23T19:31:45.420Z,3.53
2023-05-23T19:34:12.757Z,3.83
2023-05-23T19:36:40.374Z,4.95
2023-05-23T19:39:07.302Z,3.90
2023-05-23T19:41:33.935Z,4.45
2023-05-23T19:44:00.590Z,3.95
2023-05-23T19:46:28.638Z,3.83
2023-05-23T19:48:57.649Z,3.88
2023-05-23T19:51:24.829Z,4.68
2023-05-23T19:53:52.401Z,3.40
2023-05-23T19:56:19.458Z,4.93
2023-05-23T19:58:46.124Z,4.20
2023-05-23T20:01:12.809Z,3.60
2023-05-23T20:03:39.733Z,3.55
2023-05-23T20:06:06.781Z,3.95
2023-05-23T20:08:35.535Z,4.63
2023-05-23T20:11:02.219Z,4.13
2023-05-23T20:13:29.583Z,2.97
2023-05-23T20:15:56.434Z,3.70
2023-05-23T20:18:23.089Z,3.63
2023-05-23T20:20:49.747Z,3.17
2023-05-23T20:23:16.400Z,3.55
2023-05-23T20:25:43.222Z,3.90
2023-05-23T20:28:10.006Z,3.83
2023-05-23T20:30:36.814Z,3.60
2023-05-23T20:33:03.787Z,3.85
2023-05-23T20:35:31.014Z,4.28
2023-05-23T20:37:58.493Z,4.03
2023-05-23T20:40:25.743Z,5.13
2023-05-23T20:42:53.443Z,3.72
2023-05-23T20:45:20.179Z,3.60
2023-05-23T20:47:47.254Z,3.85
2023-05-23T20:50:14.769Z,4.25
2023-05-23T20:52:43.024Z,3.80
2023-05-23T20:55:10.776Z,4.10
2023-05-23T20:57:37.680Z,3.67
2023-05-23T21:00:10.842Z,4.60
2023-05-23T21:02:38.129Z,3.95
2023-05-23T21:05:08.639Z,4.13
2023-05-23T21:07:35.425Z,3.88
2023-05-23T21:10:02.530Z,3.78
2023-05-23T21:12:29.210Z,3.95
2023-05-23T21:14:58.579Z,4.03
2023-05-23T21:17:25.558Z,3.38
2023-05-23T21:19:52.266Z,4.30
2023-05-23T21:22:18.926Z,3.85
2023-05-23T21:24:45.870Z,3.65
2023-05-23T21:27:12.686Z,4.75
2023-05-23T21:29:39.323Z,4.80
2023-05-23T21:32:06.021Z,4.00
2023-05-23T21:34:32.872Z,4.90
2023-05-23T21:36:59.533Z,4.93
2023-05-23T21:39:28.803Z,4.10
2023-05-23T21:41:59.860Z,4.50
2023-05-23T21:44:26.520Z,3.92
2023-05-23T21:46:53.208Z,3.65
2023-05-23T21:49:19.934Z,4.45
2023-05-23T21:51:46.589Z,3.47
2023-05-23T21:54:13.297Z,4.13
2023-05-23T21:56:39.923Z,4.47
2023-05-23T21:59:06.577Z,4.18
2023-05-23T22:01:33.277Z,4.10
2023-05-23T22:04:00.447Z,3.95
2023-05-23T22:06:27.203Z,3.50
2023-05-23T22:08:54.256Z,3.50
2023-05-23T22:11:21.633Z,3.75
2023-05-23T22:13:48.357Z,3.25
2023-05-23T22:16:15.137Z,3.65
2023-05-23T22:18:51.723Z,3.67
2023-05-23T22:21:18.943Z,3.70
2023-05-23T22:23:45.789Z,4.25
2023-05-23T22:26:12.942Z,3.85
2023-05-23T22:28:39.732Z,3.90
2023-05-23T22:31:06.603Z,3.00
2023-05-23T22:33:33.370Z,4.78
2023-05-23T22:36:00.093Z,4.32
2023-05-23T22:38:26.757Z,3.50
2023-05-23T22:40:53.423Z,3.78
2023-05-23T22:43:21.784Z,3.90
2023-05-23T22:45:50.049Z,3.85
2023-05-23T22:48:19.238Z,3.13
2023-05-23T22:50:46.698Z,3.40
2023-05-23T22:53:16.725Z,3.58
2023-05-23T22:55:43.438Z,3.90
2023-05-23T22:58:10.426Z,4.03
2023-05-23T23:00:37.131Z,3.42
2023-05-23T23:03:04.190Z,3.72
2023-05-23T23:05:31.092Z,3.75
2023-05-23T23:07:57.745Z,4.25
2023-05-23T23:10:24.437Z,3.95
2023-05-23T23:12:51.205Z,3.53
2023-05-23T23:15:17.889Z,3.53
2023-05-23T23:17:44.942Z,3.13
2023-05-23T23:20:12.889Z,3.95
2023-05-23T23:22:39.662Z,4.28
2023-05-23T23:25:10.517Z,4.57
2023-05-23T23:27:37.887Z,3.45
2023-05-23T23:30:06.504Z,4.05
2023-05-23T23:32:34.262Z,4.43
2023-05-23T23:35:01.171Z,4.15
2023-05-23T23:37:27.831Z,4.78
2023-05-23T23:39:54.462Z,3.58
2023-05-23T23:42:21.379Z,4.07
2023-05-23T23:44:48.291Z,3.33
2023-05-23T23:47:14.986Z,4.22
2023-05-23T23:49:42.161Z,3.80
2023-05-23T23:52:09.025Z,3.30
2023-05-23T23:54:35.796Z,3.67
2023-05-23T23:57:02.574Z,5.95
2023-05-23T23:59:29.368Z,3.80
